createdAt,value
2023-01-30T00:00:08.431Z,28.48
2023-01-30T00:02:35.626Z,27.25
2023-01-30T00:05:02.911Z,29.35
2023-01-30T00:07:30.134Z,25.92
2023-01-30T00:09:57.259Z,27.33
2023-01-30T00:12:24.625Z,30.45
2023-01-30T00:14:52.463Z,27.33
2023-01-30T00:17:19.807Z,26.42
2023-01-30T00:19:46.975Z,26.75
2023-01-30T00:22:14.184Z,27.15
2023-01-30T00:24:41.443Z,26.55
2023-01-30T00:27:08.590Z,27.45
2023-01-30T00:29:36.411Z,28.88
2023-01-30T00:32:03.678Z,26.23
2023-01-30T00:34:30.793Z,25.73
2023-01-30T00:39:45.252Z,25.55
2023-01-30T00:42:31.379Z,28.00
2023-01-30T00:45:19.058Z,27.80
2023-01-30T00:47:48.191Z,29.63
2023-01-30T00:50:15.870Z,27.15
2023-01-30T00:52:43.974Z,29.15
2023-01-30T00:55:12.482Z,28.75
2023-01-30T00:57:39.618Z,28.35
2023-01-30T01:00:07.837Z,29.00
2023-01-30T01:02:35.087Z,28.80
2023-01-30T01:05:03.662Z,28.13
2023-01-30T01:07:31.893Z,29.73
2023-01-30T01:09:59.160Z,28.52
2023-01-30T01:12:26.212Z,27.17
2023-01-30T01:14:53.506Z,28.70
2023-01-30T01:17:24.897Z,27.88
2023-01-30T01:19:52.306Z,28.92
2023-01-30T01:22:19.580Z,28.75
2023-01-30T01:24:46.651Z,26.77
2023-01-30T01:27:13.929Z,28.80
2023-01-30T01:29:41.063Z,28.88
2023-01-30T01:32:08.329Z,28.38
2023-01-30T01:34:37.837Z,29.15
2023-01-30T01:37:06.309Z,27.65
2023-01-30T01:40:03.095Z,30.02
2023-01-30T01:42:32.780Z,30.77
2023-01-30T01:45:12.032Z,30.90
2023-01-30T01:47:46.087Z,30.42
2023-01-30T01:50:15.882Z,29.80
2023-01-30T01:52:44.522Z,30.35
2023-01-30T01:55:12.118Z,27.73
2023-01-30T01:57:44.103Z,30.85
2023-01-30T02:00:13.161Z,31.17
2023-01-30T02:02:44.544Z,29.35
2023-01-30T02:05:16.125Z,29.42
2023-01-30T02:07:48.571Z,30.88
2023-01-30T02:10:21.480Z,32.75
2023-01-30T02:12:48.804Z,29.95
2023-01-30T02:15:18.790Z,28.60
2023-01-30T02:17:46.734Z,31.95
2023-01-30T02:20:40.392Z,29.50
2023-01-30T02:23:11.579Z,28.85
2023-01-30T02:25:41.859Z,28.00
2023-01-30T02:28:27.865Z,29.17
2023-01-30T02:31:14.406Z,27.67
2023-01-30T02:34:00.614Z,29.45
2023-01-30T02:36:47.361Z,29.45
2023-01-30T02:39:14.432Z,28.00
2023-01-30T02:42:04.515Z,28.23
2023-01-30T02:44:35.829Z,31.02
2023-01-30T02:47:13.277Z,26.40
2023-01-30T02:49:47.267Z,26.02
2023-01-30T02:52:15.793Z,27.25
2023-01-30T02:54:43.880Z,23.27
2023-01-30T02:57:25.358Z,24.13
2023-01-30T02:59:58.347Z,24.55
2023-01-30T03:02:45.347Z,19.63
2023-01-30T03:05:25.636Z,20.05
2023-01-30T03:07:59.127Z,18.73
2023-01-30T03:10:26.288Z,15.63
2023-01-30T03:12:58.486Z,16.33
2023-01-30T03:15:25.623Z,13.23
2023-01-30T03:17:53.427Z,10.95
2023-01-30T03:20:23.648Z,9.52
2023-01-30T03:22:51.680Z,8.82
2023-01-30T03:25:21.805Z,8.63
2023-01-30T03:27:49.652Z,7.55
2023-01-30T03:30:16.959Z,7.75
2023-01-30T03:32:44.215Z,7.55
2023-01-30T03:35:12.702Z,7.03
2023-01-30T03:37:40.054Z,5.82
2023-01-30T03:40:07.681Z,7.63
2023-01-30T03:42:35.109Z,6.50
2023-01-30T03:45:02.311Z,5.65
2023-01-30T03:47:29.596Z,6.32
2023-01-30T03:49:56.833Z,5.57
2023-01-30T03:52:23.961Z,5.78
2023-01-30T03:54:51.410Z,5.88
2023-01-30T03:57:18.627Z,4.60
2023-01-30T03:59:45.904Z,5.32
2023-01-30T04:02:20.754Z,5.18
2023-01-30T04:04:48.338Z,5.75
2023-01-30T04:07:15.834Z,5.22
2023-01-30T04:09:45.207Z,7.20
2023-01-30T04:12:13.923Z,7.38
2023-01-30T04:14:50.364Z,7.13
2023-01-30T04:17:27.973Z,6.65
2023-01-30T04:20:25.059Z,5.63
2023-01-30T04:22:56.426Z,5.82
2023-01-30T04:25:25.492Z,5.97
2023-01-30T04:27:53.355Z,6.35
2023-01-30T04:30:27.693Z,7.55
2023-01-30T04:33:06.983Z,6.70
2023-01-30T04:35:34.317Z,4.97
2023-01-30T04:38:01.785Z,5.45
2023-01-30T04:40:29.041Z,5.88
2023-01-30T04:42:56.914Z,7.95
2023-01-30T04:48:18.437Z,6.32
2023-01-30T04:50:48.175Z,5.50
2023-01-30T04:53:15.660Z,5.63
2023-01-30T04:55:43.006Z,5.50
2023-01-30T04:58:10.418Z,4.93
2023-01-30T05:00:37.802Z,5.05
2023-01-30T05:03:06.487Z,5.15
2023-01-30T05:05:34.325Z,5.93
2023-01-30T05:08:01.677Z,5.00
2023-01-30T05:10:29.083Z,4.75
2023-01-30T05:12:56.286Z,5.55
2023-01-30T05:15:23.438Z,4.00
2023-01-30T05:17:50.722Z,4.43
2023-01-30T05:20:17.891Z,4.22
2023-01-30T05:22:45.068Z,4.18
2023-01-30T05:25:12.326Z,5.25
2023-01-30T05:27:39.499Z,5.03
2023-01-30T05:30:06.922Z,4.40
2023-01-30T05:32:34.063Z,3.70
2023-01-30T05:35:01.204Z,5.18
2023-01-30T05:37:28.302Z,3.80
2023-01-30T05:39:55.447Z,3.92
2023-01-30T05:42:22.609Z,4.05
2023-01-30T05:44:49.782Z,3.92
2023-01-30T05:47:16.852Z,4.13
2023-01-30T05:49:43.990Z,3.53
2023-01-30T05:52:11.102Z,4.05
2023-01-30T05:54:38.212Z,3.95
2023-01-30T05:57:05.385Z,4.15
2023-01-30T05:59:32.578Z,3.40
2023-01-30T06:01:59.686Z,4.07
2023-01-30T06:04:26.756Z,3.78
2023-01-30T06:06:53.880Z,3.95
2023-01-30T06:09:21.129Z,4.65
2023-01-30T06:11:48.246Z,4.10
2023-01-30T06:14:16.416Z,3.75
2023-01-30T06:16:43.595Z,3.85
2023-01-30T06:19:10.796Z,3.38
2023-01-30T06:21:37.878Z,3.90
2023-01-30T06:24:05.101Z,3.70
2023-01-30T06:26:32.246Z,3.90
2023-01-30T06:28:59.355Z,4.28
2023-01-30T06:31:26.595Z,4.18
2023-01-30T06:33:55.959Z,4.57
2023-01-30T06:36:23.100Z,4.75
2023-01-30T06:38:50.206Z,4.10
2023-01-30T06:41:17.470Z,3.53
2023-01-30T06:43:44.713Z,3.65
2023-01-30T06:46:11.978Z,4.13
2023-01-30T06:48:40.268Z,3.45
2023-01-30T06:51:07.455Z,4.43
2023-01-30T06:53:34.613Z,5.78
2023-01-30T06:56:21.975Z,4.35
2023-01-30T06:58:49.185Z,5.03
2023-01-30T07:01:16.322Z,4.20
2023-01-30T07:03:43.474Z,3.50
2023-01-30T07:06:10.679Z,4.65
2023-01-30T07:08:37.780Z,4.28
2023-01-30T07:11:07.872Z,4.10
2023-01-30T07:13:34.994Z,4.28
2023-01-30T07:16:02.223Z,3.95
2023-01-30T07:18:29.360Z,3.67
2023-01-30T07:20:56.723Z,4.55
2023-01-30T07:23:23.797Z,4.32
2023-01-30T07:25:50.939Z,3.40
2023-01-30T07:28:18.144Z,4.20
2023-01-30T07:30:45.392Z,4.57
2023-01-30T07:33:12.553Z,4.00
2023-01-30T07:35:39.797Z,4.72
2023-01-30T07:38:07.063Z,3.60
2023-01-30T07:40:34.537Z,5.00
2023-01-30T07:43:02.935Z,4.57
2023-01-30T07:45:36.627Z,4.38
2023-01-30T07:48:03.794Z,4.32
2023-01-30T07:50:30.887Z,4.35
2023-01-30T07:52:58.017Z,3.63
2023-01-30T07:55:25.534Z,3.90
2023-01-30T07:57:52.631Z,3.97
2023-01-30T08:00:20.387Z,3.58
2023-01-30T08:02:47.725Z,4.72
2023-01-30T08:05:14.899Z,5.32
2023-01-30T08:07:42.031Z,4.10
2023-01-30T08:10:11.914Z,4.25
2023-01-30T08:12:40.447Z,3.40
2023-01-30T08:15:08.922Z,4.40
2023-01-30T08:17:40.832Z,4.55
2023-01-30T08:20:10.806Z,4.18
2023-01-30T08:22:40.872Z,4.80
2023-01-30T08:25:08.962Z,5.10
2023-01-30T08:27:36.121Z,3.65
2023-01-30T08:30:03.246Z,4.40
2023-01-30T08:32:30.339Z,3.88
2023-01-30T08:34:57.666Z,4.93
2023-01-30T08:37:24.712Z,4.43
2023-01-30T08:39:51.874Z,4.65
2023-01-30T08:42:18.976Z,3.72
2023-01-30T08:44:46.145Z,4.88
2023-01-30T08:47:13.358Z,4.22
2023-01-30T08:49:40.439Z,5.45
2023-01-30T08:52:07.515Z,4.82
2023-01-30T08:54:34.793Z,5.68
2023-01-30T08:57:01.971Z,4.25
2023-01-30T08:59:29.033Z,6.63
2023-01-30T09:01:56.163Z,4.32
2023-01-30T09:04:24.984Z,4.78
2023-01-30T09:06:52.074Z,4.38
2023-01-30T09:09:19.150Z,4.32
2023-01-30T09:11:48.023Z,4.88
2023-01-30T09:14:19.847Z,4.60
2023-01-30T09:16:55.833Z,6.35
2023-01-30T09:19:23.894Z,5.07
2023-01-30T09:21:51.754Z,5.85
2023-01-30T09:24:19.218Z,4.55
2023-01-30T09:26:46.408Z,3.97
2023-01-30T09:29:13.571Z,4.88
2023-01-30T09:31:41.120Z,3.75
2023-01-30T09:34:08.610Z,4.55
2023-01-30T09:36:35.783Z,4.53
2023-01-30T09:39:02.922Z,4.20
2023-01-30T09:41:45.137Z,4.50
2023-01-30T09:44:31.032Z,3.53
2023-01-30T09:47:00.845Z,3.90
2023-01-30T09:49:36.868Z,4.15
2023-01-30T09:52:28.540Z,4.93
2023-01-30T09:55:08.169Z,4.43
2023-01-30T09:57:36.213Z,4.38
2023-01-30T10:00:08.530Z,4.28
2023-01-30T10:02:48.443Z,4.60
2023-01-30T10:05:15.599Z,4.28
2023-01-30T10:07:43.104Z,4.72
2023-01-30T10:10:17.708Z,3.83
2023-01-30T10:12:44.989Z,4.93
2023-01-30T10:15:26.255Z,4.55
2023-01-30T10:18:11.394Z,5.05
2023-01-30T10:20:44.312Z,4.78
2023-01-30T10:23:14.482Z,4.60
2023-01-30T10:25:44.777Z,5.35
2023-01-30T10:28:32.056Z,4.53
2023-01-30T10:31:02.707Z,5.25
2023-01-30T10:33:33.662Z,4.28
2023-01-30T10:36:04.931Z,6.05
2023-01-30T10:38:48.666Z,4.28
2023-01-30T10:41:15.770Z,3.47
2023-01-30T10:43:47.998Z,5.50
2023-01-30T10:46:34.418Z,5.00
2023-01-30T10:49:05.691Z,5.97
2023-01-30T10:51:35.580Z,5.28
2023-01-30T10:54:13.278Z,5.03
2023-01-30T10:57:00.599Z,5.90
2023-01-30T10:59:43.186Z,3.75
2023-01-30T11:02:16.327Z,4.68
2023-01-30T11:04:46.914Z,4.15
2023-01-30T11:07:14.402Z,5.00
2023-01-30T11:09:41.512Z,4.70
2023-01-30T11:12:08.815Z,4.38
2023-01-30T11:14:54.926Z,4.65
2023-01-30T11:17:23.318Z,5.13
2023-01-30T11:19:57.204Z,4.57
2023-01-30T11:22:27.016Z,5.10
2023-01-30T11:25:01.545Z,3.72
2023-01-30T11:27:29.934Z,4.95
2023-01-30T11:30:05.641Z,4.88
2023-01-30T11:32:32.869Z,4.90
2023-01-30T11:35:08.885Z,3.67
2023-01-30T11:37:40.501Z,4.82
2023-01-30T11:40:28.017Z,4.32
2023-01-30T11:43:05.657Z,4.43
2023-01-30T11:45:40.416Z,4.57
2023-01-30T11:48:31.549Z,4.88
2023-01-30T11:51:06.255Z,3.78
2023-01-30T11:53:37.456Z,4.20
2023-01-30T11:56:08.821Z,4.25
2023-01-30T11:58:39.085Z,3.88
2023-01-30T12:01:11.400Z,4.38
2023-01-30T12:03:45.217Z,4.88
2023-01-30T12:06:12.433Z,4.78
2023-01-30T12:08:43.042Z,4.93
2023-01-30T12:11:33.580Z,4.80
2023-01-30T12:14:09.700Z,4.80
2023-01-30T12:16:58.537Z,4.45
2023-01-30T12:19:37.401Z,4.72
2023-01-30T12:22:10.130Z,4.30
2023-01-30T12:24:49.042Z,4.00
2023-01-30T12:27:22.108Z,3.90
2023-01-30T12:29:49.328Z,3.58
2023-01-30T12:32:20.550Z,3.00
2023-01-30T12:34:48.395Z,3.30
2023-01-30T12:37:34.344Z,3.03
2023-01-30T12:40:20.366Z,2.83
2023-01-30T12:43:09.806Z,2.80
2023-01-30T12:45:43.879Z,2.67
2023-01-30T12:51:42.402Z,2.30
2023-01-30T12:54:20.282Z,2.08
2023-01-30T12:57:04.454Z,2.45
2023-01-30T12:59:48.391Z,2.47
2023-01-30T13:02:18.620Z,3.35
2023-01-30T13:04:56.161Z,2.60
2023-01-30T13:07:29.083Z,3.65
2023-01-30T13:09:59.034Z,3.00
2023-01-30T13:12:33.940Z,2.83
2023-01-30T13:15:04.204Z,2.88
2023-01-30T13:17:52.913Z,3.40
2023-01-30T13:20:31.429Z,3.42
2023-01-30T13:23:02.489Z,3.40
2023-01-30T13:25:35.775Z,3.17
2023-01-30T13:28:25.601Z,4.65
2023-01-30T13:30:54.129Z,3.42
2023-01-30T13:33:23.836Z,2.60
2023-01-30T13:35:52.948Z,5.07
2023-01-30T13:38:25.561Z,3.47
2023-01-30T13:43:40.946Z,3.40
2023-01-30T13:46:10.267Z,3.25
2023-01-30T13:48:56.359Z,2.97
2023-01-30T13:51:23.539Z,3.20
2023-01-30T13:53:50.600Z,3.00
2023-01-30T13:56:41.258Z,2.97
2023-01-30T13:59:29.040Z,3.28
2023-01-30T14:02:02.374Z,3.08
2023-01-30T14:04:41.732Z,3.40
2023-01-30T14:07:29.146Z,3.45
2023-01-30T14:10:12.254Z,3.75
2023-01-30T14:12:45.618Z,3.88
2023-01-30T14:15:16.416Z,4.30
2023-01-30T14:18:03.051Z,3.30
2023-01-30T14:20:32.078Z,4.35
2023-01-30T14:23:01.064Z,4.13
2023-01-30T14:25:32.772Z,4.05
2023-01-30T14:28:01.629Z,4.07
2023-01-30T14:30:31.717Z,4.85
2023-01-30T14:33:00.193Z,5.07
2023-01-30T14:35:28.307Z,3.88
2023-01-30T14:38:09.955Z,5.03
2023-01-30T14:40:38.042Z,4.68
2023-01-30T14:43:14.841Z,4.30
2023-01-30T14:45:45.628Z,4.90
2023-01-30T14:48:32.232Z,4.72
2023-01-30T14:51:18.321Z,4.13
2023-01-30T14:53:57.668Z,4.85
2023-01-30T14:56:43.366Z,4.95
2023-01-30T14:59:16.499Z,5.45
2023-01-30T15:02:02.380Z,5.72
2023-01-30T15:04:34.459Z,4.75
2023-01-30T15:07:04.973Z,6.15
2023-01-30T15:09:32.826Z,4.47
2023-01-30T15:12:09.203Z,4.40
2023-01-30T15:14:44.927Z,4.82
2023-01-30T15:17:26.714Z,4.63
2023-01-30T15:19:53.807Z,4.30
2023-01-30T15:22:25.688Z,4.45
2023-01-30T15:25:31.666Z,5.35
2023-01-30T15:28:04.702Z,4.70
2023-01-30T15:30:38.021Z,5.75
2023-01-30T15:33:19.916Z,5.85
2023-01-30T15:35:49.987Z,4.13
2023-01-30T15:38:25.989Z,4.18
2023-01-30T15:40:54.429Z,5.15
2023-01-30T15:43:21.538Z,4.95
2023-01-30T15:46:07.939Z,4.95
2023-01-30T15:48:57.714Z,4.60
2023-01-30T15:51:28.053Z,4.90
2023-01-30T15:53:56.038Z,4.90
2023-01-30T15:56:28.325Z,5.30
2023-01-30T15:58:57.146Z,4.35
2023-01-30T16:01:24.557Z,4.03
2023-01-30T16:03:53.320Z,4.03
2023-01-30T16:06:40.669Z,5.45
2023-01-30T16:09:20.188Z,4.75
2023-01-30T16:11:47.555Z,4.75
2023-01-30T16:14:14.700Z,5.85
2023-01-30T16:16:47.972Z,7.43
2023-01-30T16:19:34.744Z,6.10
2023-01-30T16:22:04.064Z,5.50
2023-01-30T16:24:32.791Z,6.20
2023-01-30T16:27:02.661Z,4.68
2023-01-30T16:29:32.133Z,5.07
2023-01-30T16:31:59.836Z,4.93
2023-01-30T16:34:32.935Z,6.88
2023-01-30T16:37:08.406Z,6.85
2023-01-30T16:39:36.984Z,5.88
2023-01-30T16:42:24.659Z,4.88
2023-01-30T16:44:52.050Z,5.45
2023-01-30T16:47:22.330Z,4.95
2023-01-30T16:49:50.235Z,6.28
2023-01-30T16:52:28.650Z,8.57
2023-01-30T16:54:58.066Z,5.10
2023-01-30T16:57:37.260Z,4.97
2023-01-30T17:00:10.104Z,4.53
2023-01-30T17:02:39.560Z,5.60
2023-01-30T17:05:29.829Z,5.78
2023-01-30T17:07:58.143Z,5.43
2023-01-30T17:10:37.368Z,5.72
2023-01-30T17:13:14.655Z,6.05
2023-01-30T17:15:41.843Z,6.68
2023-01-30T17:18:09.787Z,5.13
2023-01-30T17:20:39.018Z,5.57
2023-01-30T17:23:08.823Z,5.50
2023-01-30T17:25:38.301Z,5.75
2023-01-30T17:28:06.667Z,6.03
2023-01-30T17:30:33.858Z,5.90
2023-01-30T17:33:01.090Z,5.53
2023-01-30T17:35:28.312Z,5.32
2023-01-30T17:38:04.719Z,4.85
2023-01-30T17:40:34.153Z,5.57
2023-01-30T17:43:01.373Z,4.57
2023-01-30T17:45:29.018Z,4.18
2023-01-30T17:47:56.281Z,4.90
2023-01-30T17:50:23.613Z,4.30
2023-01-30T17:52:50.775Z,4.63
2023-01-30T17:55:18.219Z,3.90
2023-01-30T17:57:47.267Z,4.50
2023-01-30T18:00:16.260Z,4.35
2023-01-30T18:02:43.484Z,4.22
2023-01-30T18:05:10.677Z,4.07
2023-01-30T18:07:38.284Z,4.18
2023-01-30T18:10:05.717Z,4.75
2023-01-30T18:12:32.862Z,4.38
2023-01-30T18:14:59.996Z,5.50
2023-01-30T18:17:30.345Z,4.07
2023-01-30T18:19:57.526Z,4.22
2023-01-30T18:22:24.676Z,4.22
2023-01-30T18:24:53.038Z,3.72
2023-01-30T18:27:20.159Z,4.80
2023-01-30T18:29:47.323Z,5.25
2023-01-30T18:32:14.697Z,4.28
2023-01-30T18:34:41.914Z,3.60
2023-01-30T18:37:09.045Z,4.53
2023-01-30T18:39:38.168Z,4.07
2023-01-30T18:42:06.411Z,4.18
2023-01-30T18:44:33.767Z,5.13
2023-01-30T18:47:00.853Z,4.47
2023-01-30T18:49:28.115Z,4.97
2023-01-30T18:51:55.247Z,4.53
2023-01-30T18:54:22.423Z,6.85
2023-01-30T18:56:49.566Z,4.30
2023-01-30T18:59:16.737Z,5.13
2023-01-30T19:01:43.871Z,4.75
2023-01-30T19:04:11.919Z,5.15
2023-01-30T19:06:42.138Z,6.03
2023-01-30T19:09:15.184Z,5.60
2023-01-30T19:12:00.852Z,5.82
2023-01-30T19:14:28.072Z,4.50
2023-01-30T19:16:55.274Z,5.38
2023-01-30T19:19:22.440Z,4.68
2023-01-30T19:21:52.116Z,5.13
2023-01-30T19:24:19.450Z,5.55
2023-01-30T19:26:49.889Z,4.53
2023-01-30T19:29:18.235Z,5.78
2023-01-30T19:31:47.174Z,4.93
2023-01-30T19:34:14.506Z,5.47
2023-01-30T19:36:41.799Z,6.03
2023-01-30T19:39:10.529Z,6.90
2023-01-30T19:41:37.808Z,6.43
2023-01-30T19:44:10.102Z,5.85
2023-01-30T19:46:39.860Z,5.72
2023-01-30T19:49:07.239Z,5.50
2023-01-30T19:51:37.502Z,6.03
2023-01-30T19:54:06.197Z,4.95
2023-01-30T19:56:34.022Z,4.78
2023-01-30T19:59:01.687Z,5.38
2023-01-30T20:01:31.044Z,5.75
2023-01-30T20:03:59.018Z,5.00
2023-01-30T20:06:33.199Z,4.35
2023-01-30T20:09:04.784Z,5.82
2023-01-30T20:11:33.645Z,5.28
2023-01-30T20:14:01.934Z,5.72
2023-01-30T20:16:31.216Z,3.90
2023-01-30T20:19:02.810Z,3.72
2023-01-30T20:21:31.021Z,4.60
2023-01-30T20:23:58.568Z,3.85
2023-01-30T20:26:27.607Z,4.35
2023-01-30T20:28:55.595Z,4.55
2023-01-30T20:31:24.378Z,4.35
2023-01-30T20:33:55.635Z,4.70
2023-01-30T20:36:22.912Z,5.03
2023-01-30T20:38:50.379Z,3.80
2023-01-30T20:41:18.709Z,4.95
2023-01-30T20:43:49.012Z,3.80
2023-01-30T20:48:47.366Z,4.78
2023-01-30T20:51:15.669Z,5.18
2023-01-30T20:53:56.097Z,4.97
2023-01-30T20:56:23.717Z,4.03
2023-01-30T20:58:51.185Z,3.50
2023-01-30T21:01:22.957Z,3.65
2023-01-30T21:03:51.246Z,4.45
2023-01-30T21:06:41.885Z,4.07
2023-01-30T21:09:07.213Z,4.82
2023-01-30T21:11:34.727Z,4.10
2023-01-30T21:14:02.115Z,3.63
2023-01-30T21:16:30.392Z,4.30
2023-01-30T21:19:02.299Z,4.03
2023-01-30T21:21:38.231Z,3.92
2023-01-30T21:24:09.687Z,3.88
2023-01-30T21:26:38.087Z,4.15
2023-01-30T21:29:07.893Z,4.60
2023-01-30T21:31:36.082Z,4.63
2023-01-30T21:34:04.805Z,4.65
2023-01-30T21:36:32.480Z,5.20
2023-01-30T21:39:19.909Z,4.53
2023-01-30T21:42:05.573Z,4.65
2023-01-30T21:44:33.825Z,3.80
2023-01-30T21:47:00.901Z,3.90
2023-01-30T21:49:28.138Z,4.38
2023-01-30T21:51:55.687Z,4.03
2023-01-30T21:54:22.942Z,3.97
2023-01-30T21:56:50.447Z,4.65
2023-01-30T21:59:18.556Z,4.28
2023-01-30T22:01:45.701Z,5.35
2023-01-30T22:04:14.296Z,4.10
2023-01-30T22:06:41.719Z,4.05
2023-01-30T22:09:11.770Z,3.97
2023-01-30T22:11:39.083Z,4.07
2023-01-30T22:14:06.298Z,3.88
2023-01-30T22:16:37.352Z,4.75
2023-01-30T22:19:05.126Z,3.70
2023-01-30T22:21:36.652Z,3.22
2023-01-30T22:24:05.241Z,3.65
2023-01-30T22:26:33.874Z,3.58
2023-01-30T22:29:05.050Z,3.72
2023-01-30T22:31:34.460Z,4.03
2023-01-30T22:34:02.558Z,3.97
2023-01-30T22:36:30.736Z,3.88
2023-01-30T22:38:57.851Z,3.17
2023-01-30T22:41:26.170Z,4.18
2023-01-30T22:43:57.578Z,3.65
2023-01-30T22:46:26.191Z,3.10
2023-01-30T22:48:55.838Z,2.95
2023-01-30T22:51:24.603Z,3.28
2023-01-30T22:53:55.975Z,4.38
2023-01-30T22:56:24.308Z,4.50
2023-01-30T22:58:51.616Z,3.85
2023-01-30T23:01:18.740Z,4.30
2023-01-30T23:03:46.700Z,3.20
2023-01-30T23:06:15.384Z,3.70
2023-01-30T23:08:47.033Z,3.25
2023-01-30T23:11:28.198Z,3.33
2023-01-30T23:13:58.155Z,3.13
2023-01-30T23:16:27.111Z,3.67
2023-01-30T23:19:03.399Z,5.22
2023-01-30T23:21:50.814Z,4.03
2023-01-30T23:24:19.554Z,3.63
2023-01-30T23:26:47.931Z,3.80
2023-01-30T23:29:16.269Z,3.90
2023-01-30T23:31:44.464Z,3.72
2023-01-30T23:34:15.993Z,4.57
2023-01-30T23:36:43.364Z,4.25
2023-01-30T23:39:11.965Z,3.35
2023-01-30T23:41:39.252Z,3.35
2023-01-30T23:44:06.530Z,4.25
2023-01-30T23:46:37.994Z,3.00
2023-01-30T23:49:12.877Z,4.22
2023-01-30T23:51:41.576Z,4.25
2023-01-30T23:54:09.162Z,3.58
2023-01-30T23:56:37.691Z,4.63
2023-01-30T23:59:05.087Z,3.75
